Time;durP1;ratioP1;P1;durP2;ratioP2;P2;SDS_P1;SDS_P2;PMS_P1;PMS_P2;Temp;Humidity;BMP_temperature;BMP_pressure;BME280_temperature;BME280_humidity;BME280_pressure;Samples;Min_cycle;Max_cycle;Signal;HPM_P1;HPM_P2
2022/05/06 00:02:04;;;;;;;;;15.75;14.75;;;;;15.47;54.58;101909.06;5037183;28;45483;-49
2022/05/06 00:04:30;;;;;;;;;20.40;17.60;;;;;15.51;54.43;101908.41;5036805;28;46169;-48
2022/05/06 00:06:56;;;;;;;;;21.25;20.00;;;;;15.52;54.42;101917.59;5036371;28;45418;-48
2022/05/06 00:09:22;;;;;;;;;14.25;12.25;;;;;15.49;54.69;101913.31;5036878;28;45417;-52
2022/05/06 00:11:47;;;;;;;;;17.00;17.00;;;;;15.25;55.06;101876.97;5037077;28;45451;-50
2022/05/06 00:14:13;;;;;;;;;19.25;17.25;;;;;15.29;54.57;101874.63;5036645;28;46386;-49
2022/05/06 00:16:38;;;;;;;;;18.75;17.50;;;;;15.53;54.12;101913.75;5036885;28;45224;-49
2022/05/06 00:19:04;;;;;;;;;19.00;18.00;;;;;15.49;54.71;101916.09;5036496;28;45354;-55
2022/05/06 00:21:29;;;;;;;;;16.75;15.75;;;;;15.40;54.48;101903.53;5037227;28;45347;-52
2022/05/06 00:23:55;;;;;;;;;16.50;13.50;;;;;15.45;54.84;101917.59;5018084;28;47901;-54
2022/05/06 00:26:20;;;;;;;;;18.00;17.00;;;;;15.43;54.47;101905.91;5030244;28;45377;-50
2022/05/06 00:28:46;;;;;;;;;17.00;14.50;;;;;15.42;54.78;101915.25;5031384;28;45451;-46
2022/05/06 00:31:12;;;;;;;;;16.00;15.75;;;;;15.40;54.72;101917.38;5030417;28;45437;-51
2022/05/06 00:33:37;;;;;;;;;15.75;14.25;;;;;15.41;54.55;101910.78;5036191;28;47506;-50
2022/05/06 00:36:03;;;;;;;;;15.50;14.50;;;;;15.24;54.24;101880.81;5030934;28;45407;-48
2022/05/06 00:38:29;;;;;;;;;16.25;15.00;;;;;15.38;54.86;101917.59;5034901;28;45350;-48
2022/05/06 00:40:54;;;;;;;;;14.25;13.50;;;;;15.28;55.08;101911.66;5034266;28;45339;-48
2022/05/06 00:43:20;;;;;;;;;20.50;16.75;;;;;15.14;54.64;101888.69;5035040;28;45909;-48
2022/05/06 00:45:53;;;;;;;;;15.40;14.80;;;;;15.29;54.85;101914.22;5035160;28;45378;-50
2022/05/06 00:48:25;;;;;;;;;18.00;15.00;;;;;15.27;55.39;101910.78;5036211;28;45318;-52
2022/05/06 00:50:51;;;;;;;;;17.20;12.20;;;;;15.21;55.30;101894.22;5036602;28;45447;-54
2022/05/06 00:53:17;;;;;;;;;16.00;15.00;;;;;15.20;55.36;101893.38;5034721;28;45743;-48
2022/05/06 00:55:42;;;;;;;;;17.50;16.25;;;;;15.34;55.22;101921.00;5018073;28;45548;-48
2022/05/06 00:58:08;;;;;;;;;15.75;15.00;;;;;15.32;54.86;101919.31;5036063;28;45417;-49
2022/05/06 01:00:33;;;;;;;;;20.00;19.00;;;;;15.30;54.79;101915.06;5036316;28;45586;-51
2022/05/06 01:02:59;;;;;;;;;18.00;17.00;;;;;15.06;55.37;101875.97;5036033;28;45741;-49
2022/05/06 01:05:25;;;;;;;;;20.50;17.50;;;;;15.23;55.63;101909.53;5033989;28;45397;-50
2022/05/06 01:07:51;;;;;;;;;19.80;17.80;;;;;14.89;55.54;101856.22;5035937;28;45382;-49
2022/05/06 01:10:18;;;;;;;;;21.75;18.75;;;;;15.18;55.38;101901.91;5035975;28;45294;-48
2022/05/06 01:12:43;;;;;;;;;20.40;18.00;;;;;15.17;55.71;101913.16;5035948;28;46096;-49
2022/05/06 01:15:22;;;;;;;;;12.00;9.25;;;;;15.09;55.73;101892.09;5034693;28;45480;-48
2022/05/06 01:17:48;;;;;;;;;22.60;18.60;;;;;15.14;55.53;101888.69;5035959;28;45465;-55
2022/05/06 01:20:16;;;;;;;;;18.00;16.00;;;;;15.21;55.29;101900.59;5034412;28;45565;-53
2022/05/06 01:22:46;;;;;;;;;21.80;20.20;;;;;15.16;55.21;101903.19;5035892;28;46462;-51
2022/05/06 01:25:12;;;;;;;;;19.40;18.40;;;;;15.15;55.68;101902.31;5035641;28;45289;-48
2022/05/06 01:27:42;;;;;;;;;25.00;19.50;;;;;15.09;55.83;101903.16;5035648;28;45935;-47
2022/05/06 01:30:08;;;;;;;;;20.60;16.80;;;;;15.07;55.65;101894.25;5034419;28;45618;-50
2022/05/06 01:32:34;;;;;;;;;20.40;18.00;;;;;14.94;56.16;101884.03;5017148;28;47296;-51
2022/05/06 01:34:59;;;;;;;;;19.25;17.50;;;;;15.04;55.75;101906.56;5017502;28;45390;-47
2022/05/06 01:37:25;;;;;;;;;20.00;19.00;;;;;15.03;56.09;101910.41;5017894;28;45414;-50
2022/05/06 01:39:52;;;;;;;;;15.75;15.00;;;;;14.98;56.45;101909.34;5035757;28;45490;-51
2022/05/06 01:42:18;;;;;;;;;16.60;16.20;;;;;14.93;56.42;101903.63;5017754;28;46651;-55
2022/05/06 01:44:44;;;;;;;;;23.50;19.25;;;;;14.75;56.09;101866.41;5033533;28;45554;-50
2022/05/06 01:47:19;;;;;;;;;22.25;19.50;;;;;14.76;56.34;101868.09;5068107;28;45409;-51
2022/05/06 01:49:48;;;;;;;;;18.60;17.60;;;;;14.91;57.09;101901.06;5035083;28;45514;-47
2022/05/06 01:52:15;;;;;;;;;18.00;18.00;;;;;14.90;56.85;101891.06;5017384;28;45438;-48
2022/05/06 01:54:41;;;;;;;;;22.60;18.40;;;;;14.97;56.35;101900.22;5034950;28;45481;-48
2022/05/06 01:57:07;;;;;;;;;16.75;14.75;;;;;14.68;56.25;101849.78;5035318;28;45974;-48
2022/05/06 01:59:32;;;;;;;;;21.50;19.75;;;;;14.97;56.74;101894.69;5035086;28;45453;-48
2022/05/06 02:01:57;;;;;;;;;21.00;20.25;;;;;14.97;56.21;101900.22;5032030;28;46884;-52
2022/05/06 02:07:07;;;;;;;;;23.00;21.80;;;;;14.97;56.33;101905.75;5050310;28;45402;-51
2022/05/06 02:09:32;;;;;;;;;19.00;17.75;;;;;14.94;56.17;101897.03;5053516;28;45614;-50
2022/05/06 02:11:58;;;;;;;;;21.25;20.00;;;;;14.87;56.74;101911.69;5055057;28;45342;-50
2022/05/06 02:14:23;;;;;;;;;16.50;15.25;;;;;14.85;57.04;101908.28;5053072;28;45492;-50
2022/05/06 02:16:49;;;;;;;;;18.50;17.50;;;;;14.87;57.07;101914.44;5052863;28;45436;-47
2022/05/06 02:19:14;;;;;;;;;25.75;23.50;;;;;14.82;57.21;101902.31;5056903;28;45595;-48
2022/05/06 02:21:40;;;;;;;;;24.75;20.75;;;;;14.86;56.96;101906.38;5058574;28;46430;-49
2022/05/06 02:24:05;;;;;;;;;21.75;19.00;;;;;14.82;57.21;101911.47;5057052;28;45443;-49
2022/05/06 02:26:31;;;;;;;;;26.00;21.75;;;;;14.78;57.42;101910.19;5058892;28;45350;-51
2022/05/06 02:28:57;;;;;;;;;24.25;21.00;;;;;14.79;57.46;101911.03;5058448;28;45563;-48
2022/05/06 02:34:06;;;;;;;;;21.80;20.60;;;;;14.67;56.89;101874.88;5057932;28;45311;-48
2022/05/06 02:36:34;;;;;;;;;28.25;25.75;;;;;14.73;57.19;101891.44;5058493;28;45224;-47
2022/05/06 02:38:59;;;;;;;;;22.00;21.20;;;;;14.81;57.36;101907.00;5058383;28;45254;-47
2022/05/06 02:41:25;;;;;;;;;26.50;24.00;;;;;14.80;57.19;101902.53;5052869;28;45604;-51
2022/05/06 02:43:50;;;;;;;;;20.75;17.25;;;;;14.78;57.22;101907.41;5038145;28;45624;-55
2022/05/06 02:46:15;;;;;;;;;27.50;23.50;;;;;14.77;56.77;101902.94;5036835;28;45430;-53
2022/05/06 02:48:41;;;;;;;;;24.25;21.00;;;;;14.70;57.07;101893.78;5038724;28;45397;-52
2022/05/06 02:51:08;;;;;;;;;23.75;21.25;;;;;14.73;57.34;101902.50;5037438;28;45663;-49
2022/05/06 02:53:33;;;;;;;;;24.00;20.00;;;;;14.63;57.25;101899.31;5037849;28;45424;-49
2022/05/06 02:55:59;;;;;;;;;23.50;23.50;;;;;14.32;57.19;101853.78;5037745;28;45389;-47
2022/05/06 02:58:24;;;;;;;;;22.50;22.25;;;;;14.55;56.92;101910.53;5037019;28;45406;-49
2022/05/06 03:00:50;;;;;;;;;21.75;20.25;;;;;14.52;57.84;101913.75;5037965;28;46326;-50
2022/05/06 03:03:15;;;;;;;;;24.00;20.25;;;;;14.49;57.90;101915.88;5036525;28;45338;-50
2022/05/06 03:05:41;;;;;;;;;27.50;23.25;;;;;14.42;57.81;101903.97;5038403;28;45291;-48
2022/05/06 03:08:06;;;;;;;;;24.50;21.00;;;;;13.89;57.68;101827.38;5037984;28;45518;-49
2022/05/06 03:10:32;;;;;;;;;25.00;22.00;;;;;14.40;58.14;101908.81;5038002;28;46109;-49
2022/05/06 03:12:58;;;;;;;;;27.25;23.00;;;;;14.34;57.87;101901.38;5036689;28;45395;-49
2022/05/06 03:15:24;;;;;;;;;23.80;19.80;;;;;14.31;58.36;101905.41;5037558;28;45350;-48
2022/05/06 03:17:51;;;;;;;;;22.25;20.25;;;;;14.14;58.72;101882.84;5037149;28;45402;-52
2022/05/06 03:20:17;;;;;;;;;27.60;25.80;;;;;14.32;57.99;101909.91;5037473;28;46500;-50
2022/05/06 03:22:45;;;;;;;;;22.25;21.75;;;;;14.30;58.07;101908.41;5037836;28;45977;-51
2022/05/06 03:25:11;;;;;;;;;28.20;25.80;;;;;14.30;58.29;101922.22;5036154;28;45383;-47
2022/05/06 03:30:21;;;;;;;;;23.20;21.80;;;;;14.28;58.31;101921.53;5037487;28;45181;-46
2022/05/06 03:32:47;;;;;;;;;23.75;22.25;;;;;14.26;58.11;101912.63;5037622;28;45252;-50
2022/05/06 03:35:12;;;;;;;;;30.75;24.50;;;;;14.27;58.07;101914.31;5036147;28;45316;-49
2022/05/06 03:37:38;;;;;;;;;19.50;19.50;;;;;14.27;58.56;101920.72;5036748;28;45460;-52
2022/05/06 03:40:05;;;;;;;;;24.25;24.00;;;;;14.06;58.38;101880.28;5037368;28;46297;-54
2022/05/06 03:42:30;;;;;;;;;24.20;22.40;;;;;14.21;58.80;101919.59;5036771;28;45505;-52
2022/05/06 03:44:56;;;;;;;;;27.25;21.00;;;;;14.14;58.60;101928.94;5037539;28;45369;-51
2022/05/06 03:47:21;;;;;;;;;25.75;24.25;;;;;14.16;58.51;101916.63;5037593;28;45255;-50
2022/05/06 03:51:20;;;;;;;;;25.75;23.00;;;;;14.02;59.32;101914.88;5036146;28;48332;-49
2022/05/06 03:52:34;;;;;;;;;26.20;23.60;;;;;13.92;59.22;101916.13;5035724;28;45493;-47
2022/05/06 03:54:59;;;;;;;;;22.75;22.25;;;;;13.86;59.50;101908.66;5037477;28;45362;-49
2022/05/06 03:57:25;;;;;;;;;27.00;25.00;;;;;13.88;59.70;101928.59;5018912;28;45413;-49
2022/05/06 03:59:50;;;;;;;;;24.75;23.25;;;;;13.90;59.73;101922.91;5037168;28;45467;-48
2022/05/06 04:02:16;;;;;;;;;28.75;23.75;;;;;13.96;59.53;101928.47;5035934;28;45440;-48
2022/05/06 04:04:42;;;;;;;;;26.25;23.50;;;;;13.86;59.61;101924.38;5036802;28;45365;-49
2022/05/06 04:07:07;;;;;;;;;20.50;20.50;;;;;13.69;59.25;101889.72;5037380;28;45323;-48
2022/05/06 04:09:33;;;;;;;;;26.75;24.75;;;;;13.77;59.53;101896.94;5036292;28;45497;-48
2022/05/06 04:11:59;;;;;;;;;25.50;24.75;;;;;13.97;59.32;101915.50;5036568;28;45429;-47
2022/05/06 04:14:25;;;;;;;;;28.40;25.20;;;;;13.79;59.47;101897.59;5036690;28;45212;-47
2022/05/06 04:16:51;;;;;;;;;31.20;26.40;;;;;14.01;58.76;101932.50;5036429;28;45592;-48
2022/05/06 04:19:16;;;;;;;;;24.50;24.25;;;;;13.97;59.35;101934.81;5036912;28;45660;-49
2022/05/06 04:24:26;;;;;;;;;25.80;24.60;;;;;13.96;59.19;101939.50;5036592;28;45492;-48
2022/05/06 04:26:51;;;;;;;;;25.75;23.00;;;;;13.96;58.88;101931.22;5036597;28;45561;-53
2022/05/06 04:29:17;;;;;;;;;27.75;24.25;;;;;13.93;58.99;101928.03;5036420;28;45778;-51
2022/05/06 04:31:42;;;;;;;;;34.25;29.50;;;;;13.74;58.98;101908.41;5035930;28;45659;-50
2022/05/06 04:34:08;;;;;;;;;26.00;22.50;;;;;13.91;59.01;101942.00;5036299;28;45354;-48
2022/05/06 04:36:34;;;;;;;;;25.25;25.25;;;;;13.83;59.04;101936.69;5036217;28;45387;-47
2022/05/06 04:38:59;;;;;;;;;26.25;21.00;;;;;13.92;59.28;101949.22;5035388;28;45421;-50
2022/05/06 04:41:25;;;;;;;;;34.25;25.75;;;;;13.88;59.31;101950.69;5034615;28;45803;-52
2022/05/06 04:43:50;;;;;;;;;30.25;28.00;;;;;13.85;59.16;101948.34;5036244;28;45279;-50
2022/05/06 04:46:16;;;;;;;;;28.75;25.50;;;;;13.83;59.03;101948.56;5036349;28;45529;-47
2022/05/06 04:48:41;;;;;;;;;25.75;23.50;;;;;13.84;59.05;101943.91;5034427;28;47119;-47
2022/05/06 04:51:07;;;;;;;;;32.25;28.75;;;;;13.88;59.03;101952.63;5036229;28;45247;-46
2022/05/06 04:53:32;;;;;;;;;31.25;26.50;;;;;13.88;58.90;101952.63;5036108;28;45366;-49
2022/05/06 04:55:58;;;;;;;;;28.00;24.75;;;;;13.88;59.36;101952.63;5036090;28;45667;-49
2022/05/06 04:58:23;;;;;;;;;25.50;25.50;;;;;13.85;59.42;101955.75;5034591;28;47919;-49
2022/05/06 05:00:49;;;;;;;;;26.75;23.50;;;;;13.83;59.24;101954.06;5035851;28;45424;-52
2022/05/06 05:03:15;;;;;;;;;25.50;24.50;;;;;13.85;59.03;101967.66;5036433;28;45477;-48
2022/05/06 05:05:40;;;;;;;;;25.00;24.00;;;;;13.85;59.31;101970.44;5036454;28;45309;-49
2022/05/06 05:08:08;;;;;;;;;27.50;25.75;;;;;13.82;59.20;101960.66;5035931;28;47066;-47
2022/05/06 05:10:34;;;;;;;;;30.20;25.80;;;;;13.82;59.06;101970.81;5035981;28;45394;-48
2022/05/06 05:13:00;;;;;;;;;30.25;25.00;;;;;13.87;58.95;101973.00;5036077;28;45355;-48
2022/05/06 05:15:25;;;;;;;;;33.25;28.25;;;;;13.64;59.17;101936.38;5036343;28;45623;-49
2022/05/06 05:17:51;;;;;;;;;28.75;27.50;;;;;13.72;59.59;101949.13;5034586;28;45482;-52
2022/05/06 05:20:17;;;;;;;;;30.50;26.25;;;;;13.68;59.58;101936.81;5034789;28;45255;-51
2022/05/06 05:22:42;;;;;;;;;21.75;21.00;;;;;13.92;59.00;101964.94;5001906;28;45259;-50
2022/05/06 05:25:09;;;;;;;;;30.50;25.25;;;;;13.92;59.32;101965.78;5036192;28;45612;-51
2022/05/06 05:27:36;;;;;;;;;28.40;24.80;;;;;13.96;59.21;101967.09;5035660;28;46135;-48
2022/05/06 05:30:02;;;;;;;;;28.60;24.20;;;;;13.76;58.99;101933.88;5035251;28;45424;-49
2022/05/06 05:32:28;;;;;;;;;29.60;24.60;;;;;13.81;59.23;101934.13;5035858;28;45457;-51
2022/05/06 05:34:53;;;;;;;;;28.50;24.75;;;;;14.01;59.25;101973.91;5035979;28;45400;-47
2022/05/06 05:37:19;;;;;;;;;24.00;23.00;;;;;14.02;59.00;101962.66;5035374;28;45689;-46
2022/05/06 05:39:45;;;;;;;;;32.00;26.50;;;;;13.99;58.94;101963.09;5035729;28;45318;-49
2022/05/06 05:42:11;;;;;;;;;29.60;24.40;;;;;14.01;58.76;101969.25;5035409;28;45301;-48
2022/05/06 05:50:06;;;;;;;;;31.20;26.20;;;;;14.06;58.87;101980.53;5036005;28;45339;-48
2022/05/06 05:52:31;;;;;;;;;32.20;28.60;;;;;14.02;59.03;101986.63;5050768;28;45230;-47
2022/05/06 05:54:57;;;;;;;;;29.50;27.50;;;;;14.00;58.91;101988.75;5055202;28;45455;-49
2022/05/06 05:57:22;;;;;;;;;30.50;26.75;;;;;14.02;59.53;101986.63;5051171;28;47245;-48
2022/05/06 05:59:48;;;;;;;;;27.50;27.00;;;;;13.82;59.02;101955.13;5055510;28;45337;-47
2022/05/06 06:02:18;;;;;;;;;31.50;27.00;;;;;14.00;59.52;101977.72;5051979;28;45309;-49
2022/05/06 06:04:43;;;;;;;;;32.80;27.20;;;;;14.04;59.23;101990.06;5052615;28;45559;-50
2022/05/06 06:07:09;;;;;;;;;33.80;26.80;;;;;14.09;59.21;101976.50;5052700;28;46566;-49
2022/05/06 06:09:35;;;;;;;;;32.75;28.25;;;;;14.12;59.28;101973.31;5052943;28;45466;-47
2022/05/06 06:12:00;;;;;;;;;33.00;27.25;;;;;14.16;58.80;101966.34;5055499;28;45368;-46
2022/05/06 06:14:26;;;;;;;;;34.50;30.75;;;;;14.13;59.47;101975.03;5053885;28;45458;-49
2022/05/06 06:16:51;;;;;;;;;35.50;29.25;;;;;14.12;59.90;101966.94;5053577;28;45400;-50
2022/05/06 06:19:17;;;;;;;;;36.25;29.75;;;;;14.09;59.14;101960.78;5053727;28;45394;-50
2022/05/06 06:21:43;;;;;;;;;26.50;24.00;;;;;14.20;59.72;101970.38;5054977;28;45433;-52
2022/05/06 06:24:09;;;;;;;;;34.25;26.25;;;;;14.23;59.54;101972.72;5055393;28;45187;-52
2022/05/06 06:26:34;;;;;;;;;35.25;28.00;;;;;14.25;59.77;101985.47;5054689;28;45790;-50
2022/05/06 06:29:01;;;;;;;;;27.75;26.00;;;;;14.06;59.73;101949.28;5055045;28;45308;-48
2022/05/06 06:31:26;;;;;;;;;33.00;28.20;;;;;14.20;59.86;101984.19;5054777;28;45409;-49
2022/05/06 06:33:52;;;;;;;;;31.00;29.50;;;;;14.16;59.94;101974.63;5055037;28;45607;-51
2022/05/06 06:36:18;;;;;;;;;34.75;31.25;;;;;14.26;59.53;101981.66;5054749;28;46272;-48
2022/05/06 06:38:43;;;;;;;;;36.50;29.25;;;;;14.25;59.59;101986.31;5054507;28;45366;-48
2022/05/06 06:41:09;;;;;;;;;37.50;32.50;;;;;14.13;60.32;101979.72;5054081;28;45483;-48
2022/05/06 06:43:34;;;;;;;;;27.25;25.50;;;;;14.27;59.64;101986.13;5034934;28;45295;-50
2022/05/06 06:46:00;;;;;;;;;28.50;25.75;;;;;14.14;60.14;101962.06;5034667;28;45353;-50
2022/05/06 06:48:26;;;;;;;;;44.25;33.50;;;;;14.27;60.00;101986.97;5034625;28;45482;-48
2022/05/06 06:50:52;;;;;;;;;32.75;29.25;;;;;14.26;59.78;101989.94;5033165;28;45255;-55
2022/05/06 06:53:19;;;;;;;;;28.60;23.00;;;;;14.27;60.02;101988.88;5034574;28;45545;-47
2022/05/06 06:55:44;;;;;;;;;38.60;32.60;;;;;14.34;59.67;101987.84;5012761;28;46270;-49
2022/05/06 06:58:10;;;;;;;;;43.50;33.00;;;;;14.23;59.88;101955.31;5032443;28;45896;-45
2022/05/06 07:00:35;;;;;;;;;37.00;33.25;;;;;14.46;59.42;101984.50;5033443;28;45331;-51
2022/05/06 07:03:01;;;;;;;;;33.00;26.50;;;;;14.45;59.58;101983.63;5035248;28;45655;-49
2022/05/06 07:05:26;;;;;;;;;40.00;31.00;;;;;14.52;59.56;101988.31;5037082;28;45553;-49
2022/05/06 07:11:52;;;;;;;;;36.20;32.20;;;;;14.59;58.97;101986.44;5036680;28;45352;-52
2022/05/06 07:13:24;;;;;;;;;32.00;30.40;;;;;14.48;58.95;101979.59;5037051;28;45662;-48
2022/05/06 07:15:49;;;;;;;;;30.50;29.00;;;;;14.25;60.16;101963.38;5035302;28;45586;-55
2022/05/06 07:18:15;;;;;;;;;32.50;29.50;;;;;14.46;59.98;101992.78;5036869;28;45317;-49
2022/05/06 07:20:42;;;;;;;;;37.25;29.25;;;;;14.25;59.59;101971.66;5035404;28;45411;-50
2022/05/06 07:23:08;;;;;;;;;33.60;30.20;;;;;14.43;59.30;101987.66;5036578;28;45577;-47
2022/05/06 07:25:33;;;;;;;;;37.25;32.25;;;;;14.58;58.95;102001.31;5036100;28;46319;-49
2022/05/06 07:27:59;;;;;;;;;39.25;33.50;;;;;14.66;58.95;101994.75;5036996;28;45419;-48
2022/05/06 07:30:25;;;;;;;;;39.00;33.25;;;;;14.58;59.09;102007.66;5037143;28;45470;-48
2022/05/06 07:32:50;;;;;;;;;30.20;27.60;;;;;14.39;59.36;101958.75;5036885;28;45284;-48
2022/05/06 07:35:16;;;;;;;;;23.75;22.00;;;;;14.73;58.74;102001.16;5035983;28;46079;-52
2022/05/06 07:37:41;;;;;;;;;27.75;24.25;;;;;14.76;58.78;102003.50;5035647;28;45519;-51
2022/05/06 07:40:10;;;;;;;;;27.25;25.50;;;;;14.82;58.52;102008.19;5037251;28;45484;-49
2022/05/06 07:42:36;;;;;;;;;34.40;29.40;;;;;14.89;58.58;102011.00;5037133;28;45508;-49
2022/05/06 07:45:02;;;;;;;;;35.40;28.60;;;;;14.99;58.31;102013.34;5036618;28;46207;-48
2022/05/06 07:47:27;;;;;;;;;38.25;30.25;;;;;15.03;58.32;102004.41;5035909;28;45244;-48
2022/05/06 07:49:53;;;;;;;;;29.25;28.00;;;;;15.12;57.36;102009.72;5037008;28;45252;-49
2022/05/06 07:52:18;;;;;;;;;32.25;24.75;;;;;15.15;57.53;102009.28;5037470;28;45172;-53
2022/05/06 07:54:44;;;;;;;;;25.75;24.25;;;;;15.20;57.46;102003.97;5010029;28;45698;-55
2022/05/06 07:57:09;;;;;;;;;31.00;27.75;;;;;15.04;58.06;101992.28;5027736;28;46301;-56
2022/05/06 07:59:35;;;;;;;;;30.50;23.00;;;;;15.08;58.07;101997.38;4997376;28;45774;-50
2022/05/06 08:04:48;;;;;;;;;29.60;28.40;;;;;15.09;56.93;101976.97;5031572;28;45670;-50
2022/05/06 08:07:14;;;;;;;;;28.80;28.40;;;;;15.27;56.81;101998.47;5031593;28;45565;-51
2022/05/06 08:09:41;;;;;;;;;25.20;22.00;;;;;15.36;56.98;102002.72;5040039;28;45502;-51
2022/05/06 08:12:07;;;;;;;;;30.25;25.50;;;;;15.43;56.82;101998.00;5051359;28;45441;-50
2022/05/06 08:14:33;;;;;;;;;31.00;22.80;;;;;15.48;56.93;102002.06;5049233;28;45795;-51
2022/05/06 08:16:59;;;;;;;;;32.75;30.00;;;;;15.33;56.76;101975.47;5038209;28;45417;-49
2022/05/06 08:19:25;;;;;;;;;26.00;24.60;;;;;15.26;56.38;101964.41;5031420;28;45526;-48
2022/05/06 08:21:50;;;;;;;;;27.50;25.75;;;;;15.60;56.41;102000.34;5072582;27;45687;-47
2022/05/06 08:24:16;;;;;;;;;32.25;27.75;;;;;15.69;56.46;102000.97;5033540;28;45581;-48
2022/05/06 08:26:41;;;;;;;;;28.00;27.50;;;;;15.72;56.27;101989.47;5051241;28;45811;-48
2022/05/06 08:29:07;;;;;;;;;28.75;25.75;;;;;15.78;55.97;101985.84;5038289;28;45894;-48
2022/05/06 08:31:37;;;;;;;;;28.00;20.25;;;;;15.68;55.41;101961.38;5013910;28;45392;-48
2022/05/06 08:34:04;;;;;;;;;29.40;23.20;;;;;15.80;55.76;101969.84;5035772;28;45699;-47
2022/05/06 08:36:30;;;;;;;;;21.80;20.80;;;;;15.99;55.70;101992.19;5030110;28;45842;-50
2022/05/06 08:38:56;;;;;;;;;25.20;23.40;;;;;15.88;55.55;101963.25;5031589;28;45484;-46
2022/05/06 08:41:23;;;;;;;;;22.80;22.80;;;;;16.03;55.45;101985.16;5030535;28;45540;-50
2022/05/06 08:43:48;;;;;;;;;26.40;24.60;;;;;15.94;55.21;101956.84;5046333;28;46078;-49
2022/05/06 08:51:42;;;;;;;;;26.00;24.80;;;;;16.09;54.61;101953.81;5017084;28;45523;-53
2022/05/06 08:54:08;;;;;;;;;28.25;19.50;;;;;16.32;54.21;101982.91;5013786;28;45805;-56
2022/05/06 08:56:33;;;;;;;;;27.75;21.75;;;;;16.29;54.54;101985.25;5022491;28;45401;-56
2022/05/06 08:58:59;;;;;;;;;31.50;21.50;;;;;16.40;54.49;101984.56;5031218;28;45739;-53
2022/05/06 09:01:25;;;;;;;;;20.00;19.25;;;;;16.28;53.99;101951.19;5032146;28;45389;-48
2022/05/06 09:03:51;;;;;;;;;23.60;21.20;;;;;16.56;53.46;101979.59;5031829;28;45524;-49
2022/05/06 09:06:21;;;;;;;;;22.00;19.80;;;;;16.54;53.66;101977.03;5063953;28;45373;-47
2022/05/06 09:08:47;;;;;;;;;21.20;19.00;;;;;16.60;53.87;101978.06;5031907;28;45476;-54
2022/05/06 09:11:13;;;;;;;;;20.00;14.40;;;;;16.72;53.54;101976.28;5046750;28;45497;-53
2022/05/06 09:13:50;;;;;;;;;19.75;17.25;;;;;16.83;53.16;101982.19;5004232;28;45990;-55
2022/05/06 09:19:20;;;;;;;;;16.00;15.40;;;;;17.12;52.35;101975.16;5031468;28;45556;-52
2022/05/06 09:22:14;;;;;;;;;16.40;13.20;;;;;17.26;51.48;101983.38;5032843;28;45803;-47
2022/05/06 09:24:50;;;;;;;;;15.00;15.00;;;;;17.35;51.31;101973.69;5051531;28;46703;-51
2022/05/06 09:27:19;;;;;;;;;15.20;11.60;;;;;17.45;51.36;101973.19;5051458;28;45519;-49
2022/05/06 09:29:51;;;;;;;;;11.40;10.40;;;;;17.05;50.52;101889.25;5051615;28;45391;-52
2022/05/06 09:32:24;;;;;;;;;11.40;9.80;;;;;17.44;50.59;101943.72;5050829;28;45785;-50
2022/05/06 09:34:54;;;;;;;;;9.20;9.00;;;;;17.59;50.43;101971.09;5039936;28;45721;-50
2022/05/06 09:37:39;;;;;;;;;11.80;11.80;;;;;17.42;50.14;101934.78;5031279;28;45723;-50
2022/05/06 09:40:09;;;;;;;;;11.80;11.40;;;;;17.66;50.16;101973.81;5031938;28;45314;-49
2022/05/06 09:42:39;;;;;;;;;11.00;11.00;;;;;17.71;49.94;101960.94;5031563;28;45936;-52
2022/05/06 09:45:05;;;;;;;;;10.40;10.20;;;;;17.68;49.26;101955.00;5031331;28;45970;-48
2022/05/06 09:47:34;;;;;;;;;12.20;10.60;;;;;17.60;49.25;101950.59;5030111;28;45454;-49
2022/05/06 09:50:04;;;;;;;;;14.00;11.00;;;;;17.54;49.81;101934.84;5031242;28;45430;-51
2022/05/06 09:52:30;;;;;;;;;11.40;10.20;;;;;17.77;49.30;101966.66;5024248;28;45552;-49
2022/05/06 09:54:56;;;;;;;;;9.00;8.40;;;;;17.67;49.38;101936.66;5020245;28;45774;-53
2022/05/06 09:57:22;;;;;;;;;13.00;12.50;;;;;17.89;49.14;101954.53;5030582;28;45540;-54
2022/05/06 09:59:47;;;;;;;;;14.50;12.25;;;;;17.84;48.62;101920.22;5043687;28;45594;-54
2022/05/06 10:02:13;;;;;;;;;12.50;10.25;;;;;18.06;48.70;101953.94;5050974;28;45810;-47
2022/05/06 10:04:39;;;;;;;;;9.75;9.00;;;;;18.08;48.27;101953.72;5050366;28;45575;-50
2022/05/06 10:07:12;;;;;;;;;11.50;10.75;;;;;18.14;48.32;101959.19;5011429;28;45799;-55
2022/05/06 10:09:54;;;;;;;;;13.20;11.20;;;;;18.08;47.85;101932.34;5011298;28;45859;-53
2022/05/06 10:12:20;;;;;;;;;11.60;11.00;;;;;18.12;48.00;101946.59;5032882;28;46014;-52
2022/05/06 10:14:45;;;;;;;;;12.25;11.75;;;;;18.10;48.22;101954.34;5027664;28;46574;-52
2022/05/06 10:17:11;;;;;;;;;9.00;8.00;;;;;18.14;48.05;101948.06;5028834;28;45700;-47
2022/05/06 10:19:36;;;;;;;;;8.50;7.50;;;;;18.23;48.02;101945.81;5029577;28;45783;-56
2022/05/06 10:22:02;;;;;;;;;12.75;12.75;;;;;18.32;48.10;101946.34;5030064;28;45926;-49
2022/05/06 10:24:39;;;;;;;;;13.25;12.00;;;;;18.37;47.86;101948.41;5047307;28;46480;-48
2022/05/06 10:33:14;;;;;;;;;11.60;11.00;;;;;18.49;46.77;101932.63;5056978;28;45505;-47
2022/05/06 10:35:41;;;;;;;;;15.25;12.75;;;;;18.61;45.89;101945.75;5038468;28;45727;-51
2022/05/06 10:38:23;;;;;;;;;10.80;10.80;;;;;18.63;45.34;101935.22;5006312;28;46425;-52
2022/05/06 10:40:54;;;;;;;;;10.20;10.20;;;;;18.70;45.34;101927.63;5033352;28;45533;-50
2022/05/06 10:43:41;;;;;;;;;13.00;13.00;;;;;18.78;45.63;101938.38;5033192;28;45470;-53
2022/05/06 10:46:09;;;;;;;;;15.00;15.00;;;;;18.74;45.63;101933.56;5033210;28;45595;-54
2022/05/06 10:48:35;;;;;;;;;12.40;12.00;;;;;18.63;46.15;101907.41;5046759;28;45493;-55
2022/05/06 10:51:29;;;;;;;;;15.75;14.75;;;;;18.84;45.88;101922.69;5053616;28;45842;-55
2022/05/06 10:53:55;;;;;;;;;12.60;12.60;;;;;18.94;45.41;101924.91;5044381;28;45824;-49
2022/05/06 10:56:20;;;;;;;;;11.00;11.00;;;;;18.84;45.54;101889.31;5022139;28;45714;-51
2022/05/06 10:58:46;;;;;;;;;12.75;12.75;;;;;19.00;45.04;101892.47;5051731;28;45400;-52
2022/05/06 11:01:16;;;;;;;;;14.00;14.00;;;;;19.19;44.67;101918.25;5051552;28;45495;-52
2022/05/06 11:03:54;;;;;;;;;11.60;11.60;;;;;19.23;45.27;101902.78;5052979;28;45833;-53
2022/05/06 11:06:23;;;;;;;;;14.60;11.20;;;;;19.30;44.24;101917.44;5050643;28;46277;-56
2022/05/06 11:08:48;;;;;;;;;10.80;9.80;;;;;19.23;44.29;101923.09;5032716;28;45731;-51
2022/05/06 11:11:18;;;;;;;;;10.00;8.75;;;;;19.27;44.42;101905.94;5032967;28;45507;-54
2022/05/06 11:13:47;;;;;;;;;11.20;11.20;;;;;19.43;44.21;101913.53;5032918;28;46016;-50
2022/05/06 11:16:14;;;;;;;;;13.00;11.40;;;;;19.52;43.11;101910.41;5031127;28;46029;-49
2022/05/06 11:18:47;;;;;;;;;11.40;11.40;;;;;19.56;42.98;101901.31;5032785;28;45540;-51
2022/05/06 11:21:22;;;;;;;;;13.60;11.40;;;;;19.48;42.51;101876.63;5015657;28;45414;-49
2022/05/06 11:23:48;;;;;;;;;13.80;12.20;;;;;19.68;42.62;101900.44;5032582;28;45584;-51
2022/05/06 11:26:23;;;;;;;;;8.50;8.50;;;;;19.78;42.72;101892.28;5065316;28;47250;-48
2022/05/06 11:29:02;;;;;;;;;11.80;10.80;;;;;19.93;41.24;101897.34;5033391;28;45565;-53
2022/05/06 11:31:28;;;;;;;;;8.40;8.40;;;;;19.81;40.94;101869.53;5065318;28;45843;-48
2022/05/06 11:33:56;;;;;;;;;9.00;9.00;;;;;20.06;40.83;101890.66;5033382;28;45720;-47
2022/05/06 11:36:22;;;;;;;;;14.80;11.60;;;;;20.15;40.80;101889.19;5041294;28;45542;-51
2022/05/06 11:38:48;;;;;;;;;10.50;10.50;;;;;20.34;40.43;101882.53;5005698;28;46069;-50
2022/05/06 11:41:17;;;;;;;;;11.80;8.60;;;;;20.40;40.63;101890.75;5032930;28;45493;-51
2022/05/06 11:43:43;;;;;;;;;9.40;8.00;;;;;20.41;40.50;101886.00;5048387;28;45559;-48
2022/05/06 11:49:00;;;;;;;;;11.80;10.80;;;;;20.48;40.14;101878.34;5050021;28;45384;-52